^^
Station Historical Data
Daily Summary for January 2, 2018 Units:  English    Metric   Both
« Previous Day
Next Day »
Daily Weekly Monthly Yearly Custom
  High: Low: Average:
Temperature: TemperatureC °F 1.1 °F 2.8 °F
Dew Point: DewpointC °F 0.1 °F 1.8 °F
Humidity: Humidity% 93% 93%
Wind Speed: WindSpeedKMHmph 0.0mph 1mph
Wind Gust: WindSpeedGustKMHmph - -
Wind- - SSW
Pressure: PressurehPa in 988.4 in -
Precipitation: 1.3 in    
Historical Graphs
 
 
Tabular Data for January 2, 2018
Time Temperature Dew Point Pressure Wind Wind Speed Wind Gust Humidity Rainfall Rate (Hourly) solar Conditions
TemperatureC °F DewpointC °F PressurehPa in Calm     Humidity% HourlyPrecipMM in SoftwareType W/m2 Conditions
00:00 1.1 °F 0.1 °F 988.7 in ESE 0.2 mph 1.9 mph 93% 0.0 in WeatherDisplay:10.37 W/m2 RA
00:01 1.1 °F 0.1 °F 988.7 in Calm     93% 0.0 in WeatherDisplay:10.37 W/m2 RA
00:06 1.2 °F 0.4 °F 988.7 in Calm     94% 0.0 in WeatherDisplay:10.37 W/m2 RA
00:11 1.3 °F 0.4 °F 988.7 in South 3.1 mph 6.4 mph 94% 0.0 in WeatherDisplay:10.37 W/m2 FEW
00:16 1.7 °F 0.8 °F 988.7 in South 1.4 mph 5.6 mph 94% 0.0 in WeatherDisplay:10.37 W/m2 FEW
00:22 2.2 °F 1.3 °F 988.7 in South 1.9 mph 9.3 mph 94% 0.0 in WeatherDisplay:10.37 W/m2 FEW
00:26 2.5 °F 1.5 °F 989.1 in Calm     93% 0.0 in WeatherDisplay:10.37 W/m2 FEW
00:31 2.7 °F 1.8 °F 989.1 in South 1.0 mph 3.7 mph 94% 0.0 in WeatherDisplay:10.37 W/m2 FEW
00:36 2.8 °F 1.9 °F 989.1 in South 2.6 mph 5.6 mph 94% 0.0 in WeatherDisplay:10.37 W/m2 FEW
00:40 2.8 °F 1.9 °F 989.1 in Calm     94% 0.0 in WeatherDisplay:10.37 W/m2 FEW
00:45 2.8 °F 1.9 °F 989.1 in Calm     94% 0.0 in WeatherDisplay:10.37 W/m2 FEW
00:48 2.8 °F 1.9 °F 989.1 in Calm   1.9 mph 94% 0.0 in WeatherDisplay:10.37 W/m2 FEW
00:53 2.9 °F 2.0 °F 989.1 in SW 1.1 mph 7.4 mph 94% 0.0 in WeatherDisplay:10.37 W/m2 FEW
00:54 2.9 °F 2.0 °F 989.1 in Calm     94% 0.0 in WeatherDisplay:10.37 W/m2 FEW
00:59 2.8 °F 1.9 °F 989.1 in Calm     94% 0.0 in WeatherDisplay:10.37 W/m2 FEW
01:04 2.8 °F 1.9 °F 989.1 in Calm     94% 0.0 in WeatherDisplay:10.37 W/m2 FEW
01:05 2.8 °F 1.9 °F 989.1 in South 1.1 mph 4.8 mph 94% 0.0 in WeatherDisplay:10.37 W/m2 FEW
01:10 2.9 °F 2.1 °F 989.1 in WNW 0.3 mph 3.7 mph 94% 0.0 in WeatherDisplay:10.37 W/m2 FEW
01:11 3.0 °F 2.1 °F 989.1 in Calm   1.9 mph 94% 0.0 in WeatherDisplay:10.37 W/m2 FEW
01:17 3.1 °F 2.2 °F 989.1 in Calm     94% 0.3 in WeatherDisplay:10.37 W/m2 RA
01:21 3.1 °F 2.2 °F 989.1 in SSE 4.2 mph 5.6 mph 94% 0.3 in WeatherDisplay:10.37 W/m2 RA
01:26 3.1 °F 2.2 °F 989.1 in SSE 3.2 mph 9.3 mph 94% 0.5 in WeatherDisplay:10.37 W/m2 RA
01:29 3.0 °F 2.1 °F 989.1 in SSE 3.1 mph 9.3 mph 94% 0.5 in WeatherDisplay:10.37 W/m2 RA
01:34 3.2 °F 2.3 °F 989.1 in ENE 1.8 mph 7.4 mph 94% 0.5 in WeatherDisplay:10.37 W/m2 RA
01:39 3.2 °F 2.3 °F 989.1 in East 0.3 mph 3.7 mph 94% 0.5 in WeatherDisplay:10.37 W/m2 FEW
01:42 3.2 °F 2.3 °F 989.1 in East 0.8 mph 5.6 mph 94% 0.5 in WeatherDisplay:10.37 W/m2 FEW
01:48 3.2 °F 2.3 °F 988.7 in ESE 1.3 mph 5.6 mph 94% 0.5 in WeatherDisplay:10.37 W/m2 FEW
01:53 3.1 °F 2.2 °F 988.7 in Calm     94% 0.5 in WeatherDisplay:10.37 W/m2 FEW
01:56 3.1 °F 2.2 °F 988.7 in Calm     94% 0.5 in WeatherDisplay:10.37 W/m2 FEW
02:01 3.1 °F 2.2 °F 988.7 in SSE 0.5 mph 5.6 mph 94% 0.5 in WeatherDisplay:10.37 W/m2 FEW
02:06 3.2 °F 2.3 °F 988.7 in WSW 3.1 mph 13.0 mph 94% 0.5 in WeatherDisplay:10.37 W/m2 FEW
02:07 3.2 °F 2.3 °F 988.7 in SSE 1.1 mph 5.6 mph 94% 0.5 in WeatherDisplay:10.37 W/m2 FEW
02:12 3.2 °F 2.2 °F 988.7 in SE 0.3 mph 8.0 mph 93% 0.5 in WeatherDisplay:10.37 W/m2 FEW
02:15 3.2 °F 2.3 °F 988.7 in South 1.1 mph 5.6 mph 94% 0.3 in WeatherDisplay:10.37 W/m2 FEW
02:21 3.2 °F 2.3 °F 988.7 in SE 1.8 mph 8.0 mph 94% 0.3 in WeatherDisplay:10.37 W/m2 FEW
02:24 3.2 °F 2.2 °F 988.7 in SE 0.8 mph 5.6 mph 93% 0.3 in WeatherDisplay:10.37 W/m2 FEW
02:30 3.3 °F 2.4 °F 988.7 in SW 1.4 mph 5.6 mph 94% 0.0 in WeatherDisplay:10.37 W/m2 FEW
02:35 3.2 °F 2.3 °F 989.1 in Calm     94% 0.0 in WeatherDisplay:10.37 W/m2 FEW
02:40 3.1 °F 2.2 °F 989.1 in West 1.9 mph 5.6 mph 94% 0.0 in WeatherDisplay:10.37 W/m2 FEW
02:45 3.1 °F 2.2 °F 989.1 in South 3.7 mph 16.7 mph 94% 0.0 in WeatherDisplay:10.37 W/m2 FEW
02:50 3.2 °F 2.3 °F 989.1 in Calm     94% 0.0 in WeatherDisplay:10.37 W/m2 FEW
02:55 3.3 °F 2.4 °F 989.1 in SSW 0.8 mph 7.4 mph 94% 0.0 in WeatherDisplay:10.37 W/m2 FEW
02:57 3.3 °F 2.4 °F 989.1 in SSW 0.3 mph 3.2 mph 94% 0.0 in WeatherDisplay:10.37 W/m2 FEW
03:03 3.2 °F 2.3 °F 989.1 in SSE 1.0 mph 5.6 mph 94% 0.0 in WeatherDisplay:10.37 W/m2 FEW
03:04 3.2 °F 2.3 °F 989.1 in SSE 0.8 mph 5.6 mph 94% 0.0 in WeatherDisplay:10.37 W/m2 FEW
03:10 3.3 °F 2.4 °F 989.1 in SE 1.3 mph 8.0 mph 94% 0.0 in WeatherDisplay:10.37 W/m2 FEW
03:12 3.3 °F 2.4 °F 989.1 in South 0.2 mph 7.4 mph 94% 0.0 in WeatherDisplay:10.37 W/m2 FEW
03:18 3.3 °F 2.4 °F 989.1 in SSE 2.7 mph 7.4 mph 94% 0.0 in WeatherDisplay:10.37 W/m2 FEW
03:23 3.3 °F 2.4 °F 989.1 in South 1.6 mph 9.3 mph 94% 0.0 in WeatherDisplay:10.37 W/m2 FEW
03:26 3.2 °F 2.3 °F 989.1 in ESE 2.1 mph 6.4 mph 94% 0.0 in WeatherDisplay:10.37 W/m2 FEW
03:31 3.3 °F 2.4 °F 989.1 in SE 0.2 mph 1.9 mph 94% 0.0 in WeatherDisplay:10.37 W/m2 FEW
03:33 3.3 °F 2.4 °F 988.7 in South 1.4 mph 7.4 mph 94% 0.0 in WeatherDisplay:10.37 W/m2 FEW
03:38 3.2 °F 2.3 °F 989.1 in ESE 1.6 mph 11.1 mph 94% 0.0 in WeatherDisplay:10.37 W/m2 FEW
03:40 3.2 °F 2.3 °F 988.7 in Calm   7.4 mph 94% 0.0 in WeatherDisplay:10.37 W/m2 FEW
03:45 3.3 °F 2.4 °F 988.7 in SSW 3.1 mph 5.6 mph 94% 0.0 in WeatherDisplay:10.37 W/m2 FEW
03:49 3.3 °F 2.4 °F 988.7 in Calm     94% 0.0 in WeatherDisplay:10.37 W/m2 FEW
03:54 3.2 °F 2.3 °F 988.7 in SE 0.2 mph 1.9 mph 94% 0.0 in WeatherDisplay:10.37 W/m2 FEW
03:59 3.2 °F 2.3 °F 988.7 in SSW 4.5 mph 16.1 mph 94% 0.0 in WeatherDisplay:10.37 W/m2 FEW
04:03 3.3 °F 2.4 °F 988.7 in Calm   1.9 mph 94% 0.0 in WeatherDisplay:10.37 W/m2 FEW
04:08 3.3 °F 2.4 °F 988.7 in SSE 4.8 mph 14.8 mph 94% 0.0 in WeatherDisplay:10.37 W/m2 FEW
04:11 3.3 °F 2.4 °F 988.7 in SE 2.7 mph 14.8 mph 94% 0.0 in WeatherDisplay:10.37 W/m2 FEW
04:17 3.3 °F 2.4 °F 988.4 in South 3.4 mph 7.4 mph 94% 0.0 in WeatherDisplay:10.37 W/m2 FEW
04:22 3.3 °F 2.4 °F 988.4 in SSE 0.5 mph 3.7 mph 94% 0.0 in WeatherDisplay:10.37 W/m2 FEW
04:27 3.2 °F 2.3 °F 988.4 in Calm   7.4 mph 94% 0.0 in WeatherDisplay:10.37 W/m2 FEW
04:32 3.2 °F 2.3 °F 988.4 in SSE 0.5 mph   94% 0.0 in WeatherDisplay:10.37 W/m2 FEW
04:37 3.2 °F 2.3 °F 988.4 in Calm   1.9 mph 94% 0.0 in WeatherDisplay:10.37 W/m2 FEW
04:42 3.2 °F 2.3 °F 988.4 in SSE 1.9 mph 5.6 mph 94% 0.0 in WeatherDisplay:10.37 W/m2 FEW
04:43 3.2 °F 2.3 °F 988.4 in SE 1.1 mph 5.6 mph 94% 0.0 in WeatherDisplay:10.37 W/m2 FEW
04:48 3.2 °F 2.3 °F 988.4 in Calm   3.7 mph 94% 0.0 in WeatherDisplay:10.37 W/m2 FEW
04:53 3.1 °F 2.2 °F 988.4 in SE 1.4 mph 3.7 mph 94% 0.0 in WeatherDisplay:10.37 W/m2 FEW
04:59 3.1 °F 2.2 °F 988.4 in ESE 0.8 mph 11.1 mph 94% 0.0 in WeatherDisplay:10.37 W/m2 FEW
05:04 3.1 °F 2.2 °F 988.4 in SSE 1.0 mph 7.4 mph 94% 0.0 in WeatherDisplay:10.37 W/m2 FEW
05:09 3.1 °F 2.1 °F 988.4 in Calm     93% 0.3 in WeatherDisplay:10.37 W/m2 RA
05:20 3.1 °F 2.1 °F 988.4 in Calm   5.6 mph 93% 0.3 in WeatherDisplay:10.37 W/m2 FEW
05:30 3.2 °F 2.3 °F 988.4 in North 1.9 mph 5.6 mph 94% 0.3 in WeatherDisplay:10.37 W/m2 FEW
05:35 3.2 °F 2.3 °F 988.4 in SSW 0.8 mph 16.7 mph 94% 0.3 in WeatherDisplay:10.37 W/m2 FEW
05:40 3.2 °F 2.3 °F 988.4 in NNE 3.9 mph 5.6 mph 94% 0.3 in WeatherDisplay:10.37 W/m2 FEW
05:45 3.2 °F 2.3 °F 988.4 in SE 0.6 mph   94% 0.3 in WeatherDisplay:10.37 W/m2 FEW
05:50 3.1 °F 2.1 °F 988.4 in SSW 0.6 mph   93% 0.3 in WeatherDisplay:10.37 W/m2 FEW
05:55 3.1 °F 2.1 °F 988.7 in SW 0.3 mph 11.1 mph 93% 0.3 in WeatherDisplay:10.37 W/m2 FEW
06:00 3.1 °F 2.1 °F 988.7 in Calm     93% 0.3 in WeatherDisplay:10.37 W/m2 FEW
06:05 2.9 °F 1.9 °F 988.7 in South 2.1 mph 4.8 mph 93% 0.3 in WeatherDisplay:10.37 W/m2 FEW
06:06 3.0 °F 2.0 °F 988.7 in SW 4.8 mph 14.8 mph 93% 0.0 in WeatherDisplay:10.37 W/m2 FEW
06:11 3.0 °F 2.0 °F 988.7 in South 4.7 mph 5.6 mph 93% 0.0 in WeatherDisplay:10.37 W/m2 FEW
06:13 2.9 °F 1.9 °F 988.7 in Calm   5.6 mph 93% 0.0 in WeatherDisplay:10.37 W/m2 FEW
06:18 2.9 °F 2.1 °F 988.7 in SSE 1.3 mph 14.8 mph 94% 0.0 in WeatherDisplay:10.37 W/m2 FEW
06:23 2.9 °F 2.0 °F 988.7 in Calm   5.6 mph 94% 0.0 in WeatherDisplay:10.37 W/m2 FEW
06:28 2.8 °F 1.9 °F 988.7 in South 2.9 mph 9.3 mph 94% 0.0 in WeatherDisplay:10.37 W/m2 FEW
06:29 2.8 °F 1.9 °F 988.7 in South 1.8 mph 5.6 mph 94% 0.0 in WeatherDisplay:10.37 W/m2 FEW
06:34 2.8 °F 1.9 °F 988.7 in Calm     94% 0.0 in WeatherDisplay:10.37 W/m2 FEW
06:36 2.8 °F 1.9 °F 988.7 in West 0.2 mph 3.2 mph 94% 0.0 in WeatherDisplay:10.37 W/m2 FEW
06:41 2.9 °F 2.1 °F 988.7 in SE 1.4 mph 8.0 mph 94% 0.0 in WeatherDisplay:10.37 W/m2 FEW
06:46 2.9 °F 2.1 °F 989.1 in South 1.0 mph 5.6 mph 94% 0.0 in WeatherDisplay:10.37 W/m2 FEW
06:51 2.9 °F 2.0 °F 989.1 in Calm     94% 0.0 in WeatherDisplay:10.37 W/m2 FEW
06:56 2.8 °F 1.8 °F 989.1 in SSE 0.2 mph 1.9 mph 93% 0.0 in WeatherDisplay:10.37 W/m2 FEW
07:00 2.7 °F 1.7 °F 989.1 in Calm     93% 0.0 in WeatherDisplay:10.37 W/m2 FEW
07:04 2.7 °F 1.7 °F 989.1 in Calm     93% 0.0 in WeatherDisplay:10.37 W/m2 FEW
07:09 2.7 °F 1.7 °F 989.1 in ESE 0.2 mph 1.9 mph 93% 0.0 in WeatherDisplay:10.37 W/m2 FEW
07:10 2.7 °F 1.7 °F 989.1 in Calm     93% 0.0 in WeatherDisplay:10.37 W/m2 FEW
07:15 2.6 °F 1.7 °F 989.1 in SSE 1.1 mph 5.6 mph 94% 0.0 in WeatherDisplay:10.37 W/m2 FEW
07:20 2.6 °F 1.7 °F 989.1 in Calm     94% 0.0 in WeatherDisplay:10.37 W/m2 FEW
07:25 2.5 °F 1.5 °F 989.4 in Calm     93% 0.0 in WeatherDisplay:10.37 W/m2 FEW
07:30 2.4 °F 1.4 °F 989.4 in Calm     93% 0.0 in WeatherDisplay:10.37 W/m2 FEW
07:31 2.4 °F 1.4 °F 989.4 in Calm     93% 0.0 in WeatherDisplay:10.37 W/m2 FEW
07:36 2.4 °F 1.4 °F 989.4 in Calm     93% 0.0 in WeatherDisplay:10.37 W/m2 FEW
07:41 2.4 °F 1.4 °F 989.4 in Calm     93% 0.0 in WeatherDisplay:10.37 W/m2 FEW
07:46 2.4 °F 1.4 °F 989.4 in Calm     93% 0.0 in WeatherDisplay:10.37 W/m2 FEW
07:51 2.4 °F 1.4 °F 989.4 in Calm     93% 0.0 in WeatherDisplay:10.37 W/m2 FEW
07:53 2.4 °F 1.4 °F 989.4 in Calm     93% 0.0 in WeatherDisplay:10.37 W/m2 FEW
07:58 2.3 °F 1.3 °F 989.7 in Calm     93% 0.0 in WeatherDisplay:10.37 W/m2 FEW
08:03 2.3 °F 1.3 °F 989.7 in Calm     93% 0.0 in WeatherDisplay:10.37 W/m2 FEW
08:08 2.3 °F 1.3 °F 989.7 in Calm     93% 0.0 in WeatherDisplay:10.37 W/m2 FEW
08:09 2.3 °F 1.3 °F 989.7 in Calm     93% 0.0 in WeatherDisplay:10.37 W/m2 FEW
08:10 2.3 °F 1.3 °F 990.1 in SSE 1.1 mph 5.6 mph 93% 0.0 in WeatherDisplay:10.37 W/m2 FEW
08:16 2.3 °F 1.3 °F 990.1 in Calm   1.9 mph 93% 0.0 in WeatherDisplay:10.37 W/m2 FEW
08:19 2.4 °F 1.4 °F 990.1 in Calm     93% 0.0 in WeatherDisplay:10.37 W/m2 FEW
08:24 2.4 °F 1.4 °F 990.1 in Calm     93% 0.0 in WeatherDisplay:10.37 W/m2 FEW
08:29 2.4 °F 1.4 °F 990.1 in Calm     93% 0.0 in WeatherDisplay:10.37 W/m2 FEW
08:34 2.4 °F 1.4 °F 990.4 in Calm     93% 0.0 in WeatherDisplay:10.37 W/m2 FEW
08:39 2.4 °F 1.4 °F 990.4 in Calm     93% 0.0 in WeatherDisplay:10.37 W/m2 FEW
08:44 2.4 °F 1.4 °F 990.4 in Calm     93% 0.0 in WeatherDisplay:10.37 W/m2 FEW
08:46 2.4 °F 1.4 °F 990.4 in Calm     93% 0.0 in WeatherDisplay:10.37 W/m2 FEW
08:51 2.5 °F 1.5 °F 990.4 in Calm     93% 0.0 in WeatherDisplay:10.37 W/m2 FEW
08:56 2.4 °F 1.4 °F 990.7 in SSE 0.2 mph   93% 0.0 in WeatherDisplay:10.37 W/m2 FEW
09:01 2.4 °F 1.4 °F 990.7 in SSE 0.5 mph 3.7 mph 93% 0.0 in WeatherDisplay:10.37 W/m2 FEW
09:06 2.4 °F 1.4 °F 990.7 in Calm     93% 0.0 in WeatherDisplay:10.37 W/m2 FEW
09:11 2.6 °F 1.7 °F 991.1 in Calm     94% 0.0 in WeatherDisplay:10.37 W/m2 FEW
09:14 2.6 °F 1.7 °F 991.1 in Calm     94% 0.0 in WeatherDisplay:10.37 W/m2 FEW
09:19 2.7 °F 1.8 °F 991.4 in Calm     94% 0.0 in WeatherDisplay:10.37 W/m2 FEW
09:24 2.7 °F 1.7 °F 991.4 in Calm     93% 0.0 in WeatherDisplay:10.37 W/m2 FEW
09:29 2.7 °F 1.7 °F 991.8 in Calm     93% 0.0 in WeatherDisplay:10.37 W/m2 FEW
09:30 2.7 °F 1.7 °F 991.8 in Calm     93% 0.0 in WeatherDisplay:10.37 W/m2 FEW
09:35 2.9 °F 2.0 °F 991.8 in West 0.6 mph 1.9 mph 94% 0.0 in WeatherDisplay:10.37 W/m2 FEW
09:36 2.9 °F 2.0 °F 991.8 in West 0.3 mph 1.9 mph 94% 0.0 in WeatherDisplay:10.37 W/m2 FEW
09:41 3.0 °F 2.1 °F 991.8 in WNW 0.3 mph   94% 0.0 in WeatherDisplay:10.37 W/m2 FEW
09:46 3.1 °F 2.2 °F 992.1 in West 0.8 mph 5.6 mph 94% 0.0 in WeatherDisplay:10.37 W/m2 FEW
09:48 3.1 °F 2.2 °F 992.1 in South 1.4 mph   94% 0.0 in WeatherDisplay:10.37 W/m2 FEW
09:58 3.1 °F 2.2 °F 992.4 in SW 6.1 mph 13.0 mph 94% 0.3 in WeatherDisplay:10.37 W/m2 RA
10:03 2.9 °F 2.1 °F 992.8 in NW 1.9 mph 18.5 mph 94% 0.3 in WeatherDisplay:10.37 W/m2 RA
10:08 2.7 °F 1.8 °F 992.8 in West 5.8 mph 11.1 mph 94% 0.3 in WeatherDisplay:10.37 W/m2 FEW
10:13 2.6 °F 1.7 °F 993.1 in NW 1.4 mph 11.3 mph 94% 0.3 in WeatherDisplay:10.37 W/m2 FEW
10:18 2.5 °F 2.3 °F 993.5 in West 1.3 mph 3.7 mph 99% 0.3 in WeatherDisplay:10.37 W/m2 FEW
10:19 2.4 °F 1.4 °F 993.5 in SSW 1.9 mph 5.6 mph 93% 0.3 in WeatherDisplay:10.37 W/m2 FEW
10:24 2.4 °F 1.4 °F 993.5 in West 3.7 mph 5.6 mph 93% 0.3 in WeatherDisplay:10.37 W/m2 FEW
10:28 2.3 °F 1.3 °F 993.5 in WSW 0.8 mph 3.7 mph 93% 0.3 in WeatherDisplay:10.37 W/m2 FEW
10:34 2.3 °F 1.4 °F 993.5 in WNW 1.0 mph 5.6 mph 94% 0.3 in WeatherDisplay:10.37 W/m2 FEW
10:39 2.3 °F 1.4 °F 993.8 in Calm     94% 0.3 in WeatherDisplay:10.37 W/m2 FEW
10:40 2.3 °F 1.4 °F 993.8 in West 2.4 mph 3.7 mph 94% 0.3 in WeatherDisplay:10.37 W/m2 FEW
10:44 2.3 °F 1.4 °F 993.8 in West 1.6 mph 13.0 mph 94% 0.3 in WeatherDisplay:10.37 W/m2 FEW
10:49 2.3 °F 1.4 °F 993.8 in NNW 3.4 mph 5.6 mph 94% 0.3 in WeatherDisplay:10.37 W/m2 FEW
10:54 2.2 °F 1.3 °F 994.1 in West 0.2 mph 1.9 mph 94% 0.3 in WeatherDisplay:10.37 W/m2 FEW
10:59 2.2 °F 1.3 °F 994.1 in West 0.8 mph 5.6 mph 94% 0.0 in WeatherDisplay:10.37 W/m2 FEW
11:09 2.2 °F 1.3 °F 994.5 in SSW 1.8 mph 11.1 mph 94% 0.0 in WeatherDisplay:10.37 W/m2 FEW
11:12 2.2 °F 1.3 °F 994.8 in South 1.3 mph 11.1 mph 94% 0.0 in WeatherDisplay:10.37 W/m2 FEW
11:17 2.2 °F 1.3 °F 994.8 in Calm   5.6 mph 94% 0.0 in WeatherDisplay:10.37 W/m2 FEW
11:18 2.2 °F 1.3 °F 994.8 in West 0.3 mph 1.6 mph 94% 0.0 in WeatherDisplay:10.37 W/m2 FEW
11:23 2.2 °F 1.3 °F 994.8 in NNW 2.3 mph 5.6 mph 94% 0.0 in WeatherDisplay:10.37 W/m2 FEW
11:28 2.2 °F 1.3 °F 995.1 in SSW 0.3 mph 5.6 mph 94% 0.0 in WeatherDisplay:10.37 W/m2 FEW
11:33 2.2 °F 1.3 °F 995.1 in WSW 4.3 mph 6.4 mph 94% 0.0 in WeatherDisplay:10.37 W/m2 FEW
11:38 2.2 °F 1.3 °F 995.1 in West 4.7 mph 4.8 mph 94% 0.0 in WeatherDisplay:10.37 W/m2 FEW
11:43 2.2 °F 1.3 °F 995.5 in Calm   7.4 mph 94% 0.0 in WeatherDisplay:10.37 W/m2 FEW
11:48 2.2 °F 1.2 °F 995.5 in NNW 1.0 mph 5.6 mph 93% 0.0 in WeatherDisplay:10.37 W/m2 FEW
11:54 2.2 °F 1.3 °F 995.5 in NW 1.9 mph 5.6 mph 94% 0.0 in WeatherDisplay:10.37 W/m2 FEW
11:58 2.2 °F 1.2 °F 995.8 in WNW 1.8 mph 6.4 mph 93% 0.0 in WeatherDisplay:10.37 W/m2 FEW
12:03 2.2 °F 1.2 °F 995.8 in SW 1.1 mph   93% 0.0 in WeatherDisplay:10.37 W/m2 FEW
12:08 2.2 °F 1.2 °F 995.8 in WSW 0.3 mph 3.7 mph 93% 0.0 in WeatherDisplay:10.37 W/m2 FEW
12:15 2.2 °F 1.2 °F 995.8 in WSW 1.9 mph 3.2 mph 93% 0.0 in WeatherDisplay:10.37 W/m2 FEW
12:21 2.2 °F 1.2 °F 995.8 in Calm     93% 0.0 in WeatherDisplay:10.37 W/m2 FEW
12:26 2.3 °F 1.3 °F 996.2 in WNW 3.4 mph 14.8 mph 93% 0.0 in WeatherDisplay:10.37 W/m2 FEW
12:32 2.2 °F 1.2 °F 996.2 in WSW 0.2 mph 3.2 mph 93% 0.0 in WeatherDisplay:10.37 W/m2 FEW
12:35 2.2 °F 1.2 °F 996.2 in West 1.1 mph 5.6 mph 93% 0.0 in WeatherDisplay:10.37 W/m2 FEW
12:40 2.2 °F 1.2 °F 996.5 in Calm   9.3 mph 93% 0.0 in WeatherDisplay:10.37 W/m2 FEW
12:45 2.2 °F 1.2 °F 996.5 in Calm   7.4 mph 93% 0.0 in WeatherDisplay:10.37 W/m2 FEW
12:50 2.2 °F 1.2 °F 996.5 in WNW 0.5 mph 3.7 mph 93% 0.0 in WeatherDisplay:10.37 W/m2 FEW
12:51 2.2 °F 1.2 °F 996.5 in WNW 0.5 mph 3.7 mph 93% 0.0 in WeatherDisplay:10.37 W/m2 FEW
12:57 2.2 °F 1.2 °F 996.5 in WNW 0.2 mph 1.6 mph 93% 0.0 in WeatherDisplay:10.37 W/m2 FEW
13:02 2.2 °F 1.2 °F 996.8 in WSW 0.8 mph 5.6 mph 93% 0.0 in WeatherDisplay:10.37 W/m2 FEW
13:07 2.3 °F 1.4 °F 996.8 in Calm   3.2 mph 94% 0.0 in WeatherDisplay:10.37 W/m2 FEW
13:12 2.3 °F 1.4 °F 996.8 in West 1.4 mph 5.6 mph 94% 0.0 in WeatherDisplay:10.37 W/m2 FEW
13:14 2.3 °F 1.3 °F 997.2 in West 3.5 mph 9.7 mph 93% 0.0 in WeatherDisplay:10.37 W/m2 FEW
13:24 2.4 °F 1.4 °F 997.2 in Calm     93% 0.0 in WeatherDisplay:10.37 W/m2 FEW
13:29 2.4 °F 1.4 °F 997.2 in Calm     93% 0.0 in WeatherDisplay:10.37 W/m2 FEW
13:32 2.4 °F 1.4 °F 997.2 in Calm     93% 0.0 in WeatherDisplay:10.37 W/m2 FEW
13:36 2.4 °F 1.4 °F 997.5 in Calm     93% 0.0 in WeatherDisplay:10.37 W/m2 FEW
13:41 2.5 °F 1.5 °F 997.5 in Calm     93% 0.0 in WeatherDisplay:10.37 W/m2 FEW
13:46 2.4 °F 1.4 °F 997.5 in Calm     93% 0.0 in WeatherDisplay:10.37 W/m2 FEW
13:51 2.4 °F 1.4 °F 997.9 in Calm     93% 0.0 in WeatherDisplay:10.37 W/m2 FEW
13:56 2.4 °F 1.4 °F 997.9 in Calm     93% 0.0 in WeatherDisplay:10.37 W/m2 FEW
14:01 2.4 °F 1.4 °F 997.9 in Calm     93% 0.0 in WeatherDisplay:10.37 W/m2 FEW
14:05 2.4 °F 1.4 °F 998.2 in Calm     93% 0.0 in WeatherDisplay:10.37 W/m2 FEW
14:11 2.4 °F 1.4 °F 998.2 in NNE 0.6 mph 3.7 mph 93% 0.0 in WeatherDisplay:10.37 W/m2 FEW
14:16 2.4 °F 1.4 °F 998.2 in Calm     93% 0.0 in WeatherDisplay:10.37 W/m2 FEW
14:24 2.4 °F 1.4 °F 998.2 in Calm     93% 0.0 in WeatherDisplay:10.37 W/m2 FEW
14:29 2.4 °F 1.4 °F 998.2 in Calm   1.9 mph 93% 0.0 in WeatherDisplay:10.37 W/m2 FEW
14:34 2.4 °F 1.4 °F 998.2 in Calm     93% 0.0 in WeatherDisplay:10.37 W/m2 FEW
14:39 2.4 °F 1.4 °F 998.2 in Calm     93% 0.0 in WeatherDisplay:10.37 W/m2 FEW
14:41 2.4 °F 1.4 °F 998.2 in Calm     93% 0.0 in WeatherDisplay:10.37 W/m2 FEW
14:46 2.4 °F 1.4 °F 998.2 in Calm     93% 0.0 in WeatherDisplay:10.37 W/m2 FEW
14:49 2.4 °F 1.4 °F 998.2 in Calm     93% 0.0 in WeatherDisplay:10.37 W/m2 FEW
14:51 2.4 °F 1.4 °F 998.5 in Calm     93% 0.0 in WeatherDisplay:10.37 W/m2 FEW
14:55 2.4 °F 1.4 °F 998.5 in Calm     93% 0.0 in WeatherDisplay:10.37 W/m2 FEW
15:01 2.4 °F 1.4 °F 998.5 in Calm     93% 0.0 in WeatherDisplay:10.37 W/m2 FEW
15:06 2.4 °F 1.4 °F 998.5 in Calm     93% 0.0 in WeatherDisplay:10.37 W/m2 FEW
15:11 2.4 °F 1.4 °F 998.5 in Calm     93% 0.0 in WeatherDisplay:10.37 W/m2 FEW
15:16 2.4 °F 1.4 °F 998.5 in Calm     93% 0.0 in WeatherDisplay:10.37 W/m2 FEW
15:22 2.4 °F 1.4 °F 998.5 in Calm     93% 0.0 in WeatherDisplay:10.37 W/m2 FEW
15:27 2.4 °F 1.4 °F 998.5 in Calm     93% 0.0 in WeatherDisplay:10.37 W/m2 FEW
15:32 2.3 °F 1.3 °F 998.5 in Calm     93% 0.0 in WeatherDisplay:10.37 W/m2 FEW
15:37 2.3 °F 1.3 °F 998.5 in Calm     93% 0.0 in WeatherDisplay:10.37 W/m2 FEW
15:42 2.2 °F 1.2 °F 998.5 in Calm     93% 0.0 in WeatherDisplay:10.37 W/m2 FEW
15:47 2.2 °F 1.2 °F 998.5 in Calm     93% 0.0 in WeatherDisplay:10.37 W/m2 FEW
15:49 2.1 °F 1.1 °F 998.9 in Calm     93% 0.0 in WeatherDisplay:10.37 W/m2 FEW
15:55 2.1 °F 1.1 °F 998.9 in Calm     93% 0.0 in WeatherDisplay:10.37 W/m2 FEW
15:57 2.1 °F 1.1 °F 998.9 in Calm     93% 0.0 in WeatherDisplay:10.37 W/m2 FEW
16:03 2.1 °F 1.1 °F 998.9 in Calm     93% 0.0 in WeatherDisplay:10.37 W/m2 FEW
16:08 2.0 °F 1.0 °F 998.9 in Calm     93% 0.0 in WeatherDisplay:10.37 W/m2 FEW
16:12 2.0 °F 1.0 °F 998.9 in Calm     93% 0.0 in WeatherDisplay:10.37 W/m2 FEW
16:19 2.0 °F 1.0 °F 998.9 in Calm     93% 0.0 in WeatherDisplay:10.37 W/m2 FEW
16:24 2.1 °F 1.1 °F 998.9 in SE 0.5 mph 3.7 mph 93% 0.0 in WeatherDisplay:10.37 W/m2 FEW
16:29 2.1 °F 1.1 °F 998.9 in Calm     93% 0.0 in WeatherDisplay:10.37 W/m2 FEW
16:34 2.1 °F 1.1 °F 998.9 in SSE 0.6 mph 3.7 mph 93% 0.0 in WeatherDisplay:10.37 W/m2 FEW
16:36 2.2 °F 1.2 °F 998.9 in SSE 0.5 mph 5.6 mph 93% 0.0 in WeatherDisplay:10.37 W/m2 FEW
16:40 2.3 °F 1.3 °F 998.9 in Calm     93% 0.0 in WeatherDisplay:10.37 W/m2 FEW
16:45 2.4 °F 1.4 °F 998.9 in Calm     93% 0.0 in WeatherDisplay:10.37 W/m2 FEW
16:50 2.4 °F 1.4 °F 998.9 in South 1.9 mph 1.9 mph 93% 0.0 in WeatherDisplay:10.37 W/m2 FEW
16:51 2.4 °F 1.4 °F 998.9 in South 1.8 mph 5.6 mph 93% 0.0 in WeatherDisplay:10.37 W/m2 FEW
16:56 2.5 °F 1.5 °F 998.9 in Calm     93% 0.0 in WeatherDisplay:10.37 W/m2 FEW
17:01 2.6 °F 1.6 °F 999.2 in Calm     93% 0.0 in WeatherDisplay:10.37 W/m2 FEW
17:06 2.6 °F 1.6 °F 999.2 in Calm     93% 0.0 in WeatherDisplay:10.37 W/m2 FEW
17:10 2.7 °F 1.7 °F 999.2 in Calm     93% 0.0 in WeatherDisplay:10.37 W/m2 FEW
17:15 2.7 °F 1.7 °F 999.2 in Calm     93% 0.0 in WeatherDisplay:10.37 W/m2 FEW
17:20 2.9 °F 1.9 °F 999.2 in SE 4.7 mph 11.1 mph 93% 0.3 in WeatherDisplay:10.37 W/m2 RA
17:25 3.0 °F 2.0 °F 999.2 in SE 0.2 mph 3.2 mph 93% 0.3 in WeatherDisplay:10.37 W/m2 RA
17:30 3.1 °F 2.1 °F 999.2 in SSW 1.4 mph 5.6 mph 93% 0.3 in WeatherDisplay:10.37 W/m2 FEW
17:31 3.1 °F 2.1 °F 999.2 in SSW 1.0 mph 5.6 mph 93% 0.3 in WeatherDisplay:10.37 W/m2 FEW
17:36 3.2 °F 2.2 °F 999.2 in SE 0.8 mph 3.7 mph 93% 0.3 in WeatherDisplay:10.37 W/m2 FEW
17:38 3.2 °F 2.2 °F 999.2 in Calm   1.9 mph 93% 0.3 in WeatherDisplay:10.37 W/m2 FEW
17:47 3.2 °F 2.2 °F 999.2 in SSW 3.2 mph 9.7 mph 93% 0.3 in WeatherDisplay:10.37 W/m2 FEW
17:52 3.2 °F 2.2 °F 999.5 in SSW 3.2 mph 9.3 mph 93% 0.3 in WeatherDisplay:10.37 W/m2 FEW
17:57 3.2 °F 2.2 °F 999.5 in South 0.5 mph 3.7 mph 93% 0.3 in WeatherDisplay:10.37 W/m2 FEW
18:02 3.2 °F 2.2 °F 999.5 in SSW 4.2 mph 7.4 mph 93% 0.3 in WeatherDisplay:10.37 W/m2 FEW
18:07 3.2 °F 2.2 °F 999.5 in South 1.9 mph 5.6 mph 93% 0.3 in WeatherDisplay:10.37 W/m2 FEW
18:14 3.2 °F 2.2 °F 999.5 in SSE 0.5 mph 3.7 mph 93% 0.3 in WeatherDisplay:10.37 W/m2 FEW
18:19 3.2 °F 2.2 °F 999.5 in SSE 2.7 mph 8.0 mph 93% 0.0 in WeatherDisplay:10.37 W/m2 FEW
18:25 3.2 °F 2.2 °F 999.5 in SSE 3.7 mph 11.1 mph 93% 0.0 in WeatherDisplay:10.37 W/m2 FEW
18:30 3.2 °F 2.2 °F 999.5 in South 1.0 mph 5.6 mph 93% 0.0 in WeatherDisplay:10.37 W/m2 FEW
18:35 3.3 °F 2.3 °F 999.5 in Calm     93% 0.0 in WeatherDisplay:10.37 W/m2 FEW
18:45 3.2 °F 2.2 °F 999.9 in Calm     93% 0.0 in WeatherDisplay:10.37 W/m2 FEW
18:53 3.3 °F 2.3 °F 999.9 in South 5.3 mph 7.4 mph 93% 0.0 in WeatherDisplay:10.37 W/m2 FEW
18:55 3.3 °F 2.3 °F 999.9 in South 0.8 mph 5.6 mph 93% 0.0 in WeatherDisplay:10.37 W/m2 FEW
18:59 3.3 °F 2.3 °F 999.9 in SSW 4.0 mph 14.8 mph 93% 0.0 in WeatherDisplay:10.37 W/m2 FEW
19:04 3.3 °F 2.3 °F 999.9 in Calm   1.9 mph 93% 0.0 in WeatherDisplay:10.37 W/m2 FEW
19:07 3.3 °F 2.3 °F 999.9 in West 2.7 mph 7.4 mph 93% 0.0 in WeatherDisplay:10.37 W/m2 FEW
19:12 3.3 °F 2.3 °F 999.9 in SSW 3.1 mph 16.7 mph 93% 0.3 in WeatherDisplay:10.37 W/m2 RA
19:16 3.3 °F 2.3 °F 999.9 in WSW 2.6 mph 7.4 mph 93% 0.3 in WeatherDisplay:10.37 W/m2 RA
19:21 3.3 °F 2.3 °F 999.9 in SE 1.6 mph 9.3 mph 93% 0.3 in WeatherDisplay:10.37 W/m2 FEW
19:26 3.3 °F 2.3 °F 999.9 in South 2.3 mph 7.4 mph 93% 0.3 in WeatherDisplay:10.37 W/m2 FEW
19:31 3.3 °F 2.3 °F 999.9 in West 1.0 mph 3.7 mph 93% 0.3 in WeatherDisplay:10.37 W/m2 FEW
19:36 3.3 °F 2.3 °F 999.9 in South 3.1 mph 11.1 mph 93% 0.3 in WeatherDisplay:10.37 W/m2 FEW
19:41 3.3 °F 2.3 °F 999.9 in SE 1.8 mph 5.6 mph 93% 0.3 in WeatherDisplay:10.37 W/m2 FEW
19:44 3.3 °F 2.3 °F 999.9 in Calm     93% 0.3 in WeatherDisplay:10.37 W/m2 FEW
19:49 3.2 °F 2.2 °F 999.9 in SE 1.6 mph 5.6 mph 93% 0.3 in WeatherDisplay:10.37 W/m2 FEW
19:51 3.2 °F 2.2 °F 999.9 in Calm     93% 0.3 in WeatherDisplay:10.37 W/m2 FEW
19:53 3.2 °F 2.2 °F 999.9 in Calm     93% 0.3 in WeatherDisplay:10.37 W/m2 FEW
19:58 3.2 °F 2.2 °F 999.9 in SSE 3.9 mph 5.6 mph 93% 0.3 in WeatherDisplay:10.37 W/m2 FEW
20:03 3.2 °F 2.2 °F 999.9 in Calm     93% 0.3 in WeatherDisplay:10.37 W/m2 FEW
20:07 3.2 °F 2.2 °F 1000.2 in Calm     93% 0.3 in WeatherDisplay:10.37 W/m2 FEW
20:12 3.2 °F 2.2 °F 1000.2 in Calm     93% 0.0 in WeatherDisplay:10.37 W/m2 FEW
20:13 3.2 °F 2.2 °F 1000.2 in SSE 7.1 mph 20.4 mph 93% 0.0 in WeatherDisplay:10.37 W/m2 FEW
20:18 3.2 °F 2.2 °F 1000.2 in SSW 0.5 mph 5.6 mph 93% 0.0 in WeatherDisplay:10.37 W/m2 FEW
20:23 3.3 °F 2.3 °F 999.9 in South 3.2 mph 9.7 mph 93% 0.0 in WeatherDisplay:10.37 W/m2 FEW
20:28 3.2 °F 2.2 °F 1000.2 in Calm     93% 0.0 in WeatherDisplay:10.37 W/m2 FEW
20:29 3.2 °F 2.2 °F 999.9 in South 0.6 mph 5.6 mph 93% 0.0 in WeatherDisplay:10.37 W/m2 FEW
20:35 3.2 °F 2.3 °F 1000.2 in South 3.1 mph 9.3 mph 94% 0.0 in WeatherDisplay:10.37 W/m2 FEW
20:36 3.1 °F 2.2 °F 1000.2 in South 3.1 mph 3.1 mph 94% 0.0 in WeatherDisplay:10.37 W/m2 FEW
20:42 3.1 °F 2.1 °F 1000.2 in Calm     93% 0.0 in WeatherDisplay:10.37 W/m2 FEW
20:47 3.0 °F 2.0 °F 1000.2 in SSW 1.8 mph 5.6 mph 93% 0.0 in WeatherDisplay:10.37 W/m2 FEW
20:52 3.0 °F 2.0 °F 1000.2 in Calm     93% 0.0 in WeatherDisplay:10.37 W/m2 FEW
20:57 3.0 °F 2.0 °F 1000.2 in SE 0.5 mph 5.6 mph 93% 0.0 in WeatherDisplay:10.37 W/m2 FEW
21:02 3.0 °F 2.0 °F 1000.2 in SSE 0.2 mph 1.9 mph 93% 0.0 in WeatherDisplay:10.37 W/m2 FEW
21:03 3.0 °F 2.0 °F 1000.2 in Calm     93% 0.0 in WeatherDisplay:10.37 W/m2 FEW
21:08 3.0 °F 2.0 °F 1000.2 in Calm     93% 0.0 in WeatherDisplay:10.37 W/m2 FEW
21:10 3.0 °F 2.0 °F 1000.2 in Calm   3.2 mph 93% 0.0 in WeatherDisplay:10.37 W/m2 FEW
21:15 3.0 °F 2.0 °F 1000.2 in Calm   1.9 mph 93% 0.0 in WeatherDisplay:10.37 W/m2 FEW
21:20 3.0 °F 2.0 °F 1000.2 in SSE 2.1 mph 2.1 mph 93% 0.0 in WeatherDisplay:10.37 W/m2 FEW
21:24 2.9 °F 1.9 °F 1000.2 in West 0.8 mph 11.1 mph 93% 0.0 in WeatherDisplay:10.37 W/m2 FEW
21:30 3.1 °F 2.1 °F 1000.2 in Calm     93% 0.0 in WeatherDisplay:10.37 W/m2 FEW
21:35 3.1 °F 2.1 °F 1000.2 in SE 1.3 mph 11.3 mph 93% 0.0 in WeatherDisplay:10.37 W/m2 FEW
21:40 3.1 °F 2.1 °F 1000.2 in SSE 0.6 mph 5.6 mph 93% 0.0 in WeatherDisplay:10.37 W/m2 FEW
21:45 3.2 °F 2.2 °F 1000.2 in South 0.2 mph 3.7 mph 93% 0.0 in WeatherDisplay:10.37 W/m2 FEW
21:46 3.2 °F 2.2 °F 1000.2 in WSW 0.6 mph 3.7 mph 93% 0.0 in WeatherDisplay:10.37 W/m2 FEW
21:51 3.2 °F 2.2 °F 1000.6 in Calm     93% 0.0 in WeatherDisplay:10.37 W/m2 FEW
21:55 3.2 °F 2.2 °F 1000.6 in SW 0.2 mph 1.9 mph 93% 0.0 in WeatherDisplay:10.37 W/m2 FEW
21:56 3.2 °F 2.2 °F 1000.6 in South 0.2 mph 3.2 mph 93% 0.0 in WeatherDisplay:10.37 W/m2 FEW
22:01 3.2 °F 2.2 °F 1000.6 in SE 4.3 mph 11.1 mph 93% 0.0 in WeatherDisplay:10.37 W/m2 FEW
22:06 3.2 °F 2.2 °F 1000.6 in SE 3.1 mph 5.6 mph 93% 0.0 in WeatherDisplay:10.37 W/m2 FEW
22:07 3.2 °F 2.2 °F 1000.6 in SSE 1.9 mph 5.6 mph 93% 0.0 in WeatherDisplay:10.37 W/m2 FEW
22:13 3.2 °F 2.2 °F 1000.6 in Calm     93% 0.0 in WeatherDisplay:10.37 W/m2 FEW
22:18 3.3 °F 2.3 °F 1000.6 in South 6.1 mph 13.0 mph 93% 0.0 in WeatherDisplay:10.37 W/m2 FEW
22:20 3.3 °F 2.3 °F 1000.6 in SSW 0.5 mph 7.4 mph 93% 0.0 in WeatherDisplay:10.37 W/m2 FEW
22:26 3.3 °F 2.3 °F 1000.6 in SSE 1.0 mph 6.4 mph 93% 0.0 in WeatherDisplay:10.37 W/m2 FEW
22:31 3.2 °F 2.3 °F 1000.6 in South 0.2 mph 5.6 mph 94% 0.0 in WeatherDisplay:10.37 W/m2 FEW
22:36 3.2 °F 2.3 °F 1000.6 in East 1.1 mph 5.6 mph 94% 0.0 in WeatherDisplay:10.37 W/m2 FEW
22:41 3.2 °F 2.3 °F 1000.6 in Calm     94% 0.0 in WeatherDisplay:10.37 W/m2 FEW
22:45 3.2 °F 2.3 °F 1000.6 in South 3.1 mph 5.6 mph 94% 0.0 in WeatherDisplay:10.37 W/m2 FEW
22:46 3.2 °F 2.3 °F 1000.6 in SW 0.6 mph 5.6 mph 94% 0.0 in WeatherDisplay:10.37 W/m2 FEW
22:51 3.3 °F 2.4 °F 1000.6 in South 3.2 mph 5.6 mph 94% 0.0 in WeatherDisplay:10.37 W/m2 FEW
22:52 3.3 °F 2.4 °F 1000.6 in SW 6.6 mph 16.7 mph 94% 0.0 in WeatherDisplay:10.37 W/m2 FEW
22:57 3.3 °F 2.3 °F 1000.6 in South 1.0 mph 11.1 mph 93% 0.0 in WeatherDisplay:10.37 W/m2 FEW
23:02 3.3 °F 2.3 °F 1000.9 in SE 0.3 mph 3.7 mph 93% 0.0 in WeatherDisplay:10.37 W/m2 FEW
23:07 3.3 °F 2.3 °F 1000.9 in NNE 2.1 mph 7.4 mph 93% 0.0 in WeatherDisplay:10.37 W/m2 FEW
23:11 3.3 °F 2.3 °F 1000.9 in South 1.3 mph 5.6 mph 93% 0.0 in WeatherDisplay:10.37 W/m2 FEW
23:17 3.4 °F 2.4 °F 1000.9 in Calm     93% 0.0 in WeatherDisplay:10.37 W/m2 FEW
23:18 3.4 °F 2.4 °F 1000.9 in Calm   1.9 mph 93% 0.0 in WeatherDisplay:10.37 W/m2 FEW
23:20 3.4 °F 2.4 °F 1000.9 in WNW 0.5 mph 11.1 mph 93% 0.0 in WeatherDisplay:10.37 W/m2 FEW
23:25 3.4 °F 2.4 °F 1000.9 in SW 0.6 mph 3.2 mph 93% 0.0 in WeatherDisplay:10.37 W/m2 FEW
23:31 3.4 °F 2.4 °F 1000.9 in SSW 0.2 mph 3.2 mph 93% 0.0 in WeatherDisplay:10.37 W/m2 FEW
23:36 3.4 °F 2.4 °F 1000.9 in SE 0.5 mph 5.6 mph 93% 0.0 in WeatherDisplay:10.37 W/m2 FEW
23:41 3.4 °F 2.4 °F 1000.9 in Calm     93% 0.0 in WeatherDisplay:10.37 W/m2 FEW
23:46 3.3 °F 2.3 °F 1000.9 in WSW 6.8 mph 14.8 mph 93% 0.0 in WeatherDisplay:10.37 W/m2 FEW
23:51 3.4 °F 2.4 °F 1000.9 in SSW 1.0 mph 1.9 mph 93% 0.0 in WeatherDisplay:10.37 W/m2 FEW
23:53 3.4 °F 2.4 °F 1000.9 in Calm     93% 0.0 in WeatherDisplay:10.37 W/m2 FEW
23:54 3.4 °F 2.4 °F 1000.9 in SE 2.3 mph 6.4 mph 93% 0.0 in WeatherDisplay:10.37 W/m2 FEW
Tuulensuunkaari, Veikkola, Suomi
Compliments of Weather Underground - 2.75 mb